SAN weather

San Diego International Airport
San Diego, California, United States

Public forecast

Using degrees Fahrenheit for public forecast. Weather courtesy of forecast.io.

METAR (pilot weather report)

Retrieved 2017/10/19 10:51 UTC (1 hour ago):

KSAN 191051Z 15004KT 8SM OVC015 20/16 A2991 RMK AO2 SLP127 T02000161

TAF (pilot weather forecast)

Retrieved 2017/10/19 06:22 UTC (5 hours ago):

TAF KSAN 190520Z 1906/2012 VRB03KT P6SM OVC010 FM191700 VRB04KT P6SM SCT015 FM191900 27008KT P6SM FEW018 FEW200 FM200200 VRB04KT P6SM SCT020 FM200400 VRB03KT P6SM OVC020